Time;durP1;ratioP1;P1;durP2;ratioP2;P2;SDS_P1;SDS_P2;PMS_P1;PMS_P2;Temp;Humidity;BMP_temperature;BMP_pressure;BME280_temperature;BME280_humidity;BME280_pressure;Samples;Min_cycle;Max_cycle;Signal;HPM_P1;HPM_P2
2023/09/26 00:02:25;;;;;;;9.80;6.53;;;15.90;99.90;;;;;;4976201;28;20038;-75
2023/09/26 00:04:51;;;;;;;8.45;6.63;;;15.80;99.90;;;;;;4992855;28;20472;-75
2023/09/26 00:07:17;;;;;;;9.75;7.03;;;15.90;99.90;;;;;;4992905;28;20070;-76
2023/09/26 00:09:44;;;;;;;8.77;6.32;;;15.90;99.90;;;;;;4976205;28;20042;-75
2023/09/26 00:12:10;;;;;;;9.52;7.25;;;15.90;99.90;;;;;;4992521;28;20501;-76
2023/09/26 00:14:37;;;;;;;9.27;7.10;;;15.90;99.90;;;;;;4992959;28;20041;-76
2023/09/26 00:17:03;;;;;;;13.10;7.47;;;15.90;99.90;;;;;;4992983;28;20049;-75
2023/09/26 00:19:29;;;;;;;9.23;6.90;;;15.80;99.90;;;;;;5009750;28;20583;-75
2023/09/26 00:21:55;;;;;;;9.23;6.93;;;15.90;99.90;;;;;;4992500;28;20046;-76
2023/09/26 00:24:21;;;;;;;7.20;5.97;;;15.90;99.90;;;;;;5010278;28;20052;-75
2023/09/26 00:26:46;;;;;;;7.78;6.53;;;15.90;99.90;;;;;;5010250;28;20049;-75
2023/09/26 00:29:12;;;;;;;13.07;7.50;;;15.90;99.90;;;;;;4992482;28;20034;-75
2023/09/26 00:31:38;;;;;;;8.70;7.38;;;15.90;99.90;;;;;;4992489;28;20090;-75
2023/09/26 00:34:04;;;;;;;8.60;7.25;;;15.90;99.90;;;;;;4992250;28;20042;-75
2023/09/26 00:36:30;;;;;;;9.40;7.70;;;15.90;99.90;;;;;;4992417;28;20055;-75
2023/09/26 00:38:55;;;;;;;8.85;6.75;;;15.90;99.90;;;;;;4992172;28;20033;-75
2023/09/26 00:41:21;;;;;;;9.68;7.97;;;15.90;99.90;;;;;;4992233;28;20450;-75
2023/09/26 00:43:46;;;;;;;10.18;7.50;;;15.80;99.90;;;;;;4992121;28;20058;-75
2023/09/26 00:46:12;;;;;;;11.10;7.30;;;15.80;99.90;;;;;;4992281;28;20091;-75
2023/09/26 00:48:38;;;;;;;10.63;7.45;;;15.80;99.90;;;;;;4991973;28;20412;-75
2023/09/26 00:51:06;;;;;;;9.73;7.90;;;15.80;99.90;;;;;;4992059;28;20038;-75
2023/09/26 00:53:32;;;;;;;10.50;7.35;;;15.80;99.90;;;;;;4991540;28;20586;-75
2023/09/26 00:55:59;;;;;;;9.18;7.95;;;15.70;99.90;;;;;;4991640;28;20072;-75
2023/09/26 00:58:25;;;;;;;9.10;6.82;;;15.70;99.90;;;;;;5009561;28;20417;-75
2023/09/26 01:00:53;;;;;;;12.05;8.63;;;15.70;99.90;;;;;;5008958;28;20073;-76
2023/09/26 01:03:19;;;;;;;10.90;8.05;;;15.60;99.90;;;;;;4991972;28;20121;-76
2023/09/26 01:05:45;;;;;;;10.85;7.70;;;15.70;99.90;;;;;;4991936;28;20038;-75
2023/09/26 01:08:11;;;;;;;9.43;7.88;;;15.60;99.90;;;;;;5009519;28;20045;-75
2023/09/26 01:10:36;;;;;;;11.32;7.97;;;15.60;99.90;;;;;;4991501;28;20034;-75
2023/09/26 01:13:03;;;;;;;11.68;8.68;;;15.70;99.90;;;;;;5009213;28;20396;-75
2023/09/26 01:15:33;;;;;;;12.43;8.50;;;15.70;99.90;;;;;;4991879;28;20052;-75
2023/09/26 01:17:59;;;;;;;11.10;8.90;;;15.70;99.90;;;;;;4991686;28;20049;-75
2023/09/26 01:20:24;;;;;;;12.82;8.35;;;15.70;99.90;;;;;;4991491;28;20443;-75
2023/09/26 01:22:52;;;;;;;14.10;9.13;;;15.60;99.90;;;;;;5008900;28;20041;-75
2023/09/26 01:25:18;;;;;;;11.93;9.40;;;15.60;99.90;;;;;;4991861;28;20088;-75
2023/09/26 01:27:44;;;;;;;11.93;9.00;;;15.60;99.90;;;;;;4991655;28;20069;-75
2023/09/26 01:30:10;;;;;;;12.77;9.40;;;15.50;99.90;;;;;;5008947;28;20041;-75
2023/09/26 01:32:35;;;;;;;14.35;9.05;;;15.50;99.90;;;;;;5009055;28;20042;-75
2023/09/26 01:35:01;;;;;;;11.48;9.43;;;15.50;99.90;;;;;;5009328;28;20401;-75
2023/09/26 01:37:26;;;;;;;11.85;9.52;;;15.50;99.90;;;;;;4991523;28;20485;-75
2023/09/26 01:39:52;;;;;;;12.82;10.43;;;15.40;99.90;;;;;;5000111;28;20131;-75
2023/09/26 01:42:18;;;;;;;13.07;10.20;;;15.50;99.90;;;;;;4988877;28;20057;-76
2023/09/26 01:44:43;;;;;;;12.85;9.40;;;15.40;99.90;;;;;;5001636;28;20125;-75
2023/09/26 01:47:21;;;;;;;13.88;9.55;;;15.40;99.90;;;;;;5008165;28;20038;-75
2023/09/26 01:49:46;;;;;;;16.50;10.65;;;15.40;99.90;;;;;;5008880;28;20057;-75
2023/09/26 01:52:12;;;;;;;15.15;11.20;;;15.40;99.90;;;;;;5008937;28;20516;-75
2023/09/26 01:54:38;;;;;;;11.15;9.98;;;15.40;99.90;;;;;;5002419;28;20402;-75
2023/09/26 01:57:06;;;;;;;11.85;10.60;;;15.40;99.90;;;;;;5007266;28;20583;-75
2023/09/26 01:59:33;;;;;;;16.85;11.15;;;15.40;99.90;;;;;;5004413;28;20034;-75
2023/09/26 02:02:02;;;;;;;12.20;10.90;;;15.40;99.90;;;;;;4983057;28;20034;-76
2023/09/26 02:04:28;;;;;;;15.43;11.25;;;15.30;99.90;;;;;;4992513;28;20042;-75
2023/09/26 02:06:53;;;;;;;12.10;9.95;;;15.30;99.90;;;;;;4994478;28;20625;-76
2023/09/26 02:09:19;;;;;;;13.68;10.70;;;15.40;99.90;;;;;;4994449;28;20124;-76
2023/09/26 02:11:44;;;;;;;11.55;10.27;;;15.30;99.90;;;;;;4994661;28;20081;-75
2023/09/26 02:14:10;;;;;;;13.50;10.18;;;15.40;99.90;;;;;;4993290;28;20046;-75
2023/09/26 02:16:35;;;;;;;12.32;9.75;;;15.40;99.90;;;;;;4985566;28;20042;-76
2023/09/26 02:19:01;;;;;;;13.55;10.23;;;15.40;99.90;;;;;;4993872;28;20413;-76
2023/09/26 02:21:27;;;;;;;13.32;10.07;;;15.30;99.90;;;;;;5011527;28;20413;-75
2023/09/26 02:23:53;;;;;;;13.77;11.15;;;15.40;99.90;;;;;;4994601;28;20087;-75
2023/09/26 02:26:18;;;;;;;12.60;10.27;;;15.40;99.90;;;;;;4978354;28;20497;-75
2023/09/26 02:28:44;;;;;;;14.07;10.85;;;15.40;99.90;;;;;;4977982;28;20471;-75
2023/09/26 02:31:15;;;;;;;13.57;10.82;;;15.40;99.90;;;;;;4994074;28;20405;-76
2023/09/26 02:33:41;;;;;;;15.25;11.63;;;15.40;99.90;;;;;;4994171;28;20034;-75
2023/09/26 02:36:06;;;;;;;14.30;10.75;;;15.40;99.90;;;;;;5010690;28;20144;-75
2023/09/26 02:38:32;;;;;;;17.05;11.70;;;15.30;99.90;;;;;;4994163;28;20496;-75
2023/09/26 02:40:58;;;;;;;12.85;10.43;;;15.30;99.90;;;;;;5010293;28;20390;-75
2023/09/26 02:43:23;;;;;;;14.02;10.45;;;15.30;99.90;;;;;;4993836;28;20125;-76
2023/09/26 02:45:49;;;;;;;15.23;10.57;;;15.20;99.90;;;;;;4994245;28;20073;-75
2023/09/26 02:48:14;;;;;;;13.73;11.07;;;15.20;99.90;;;;;;4994245;28;20042;-75
2023/09/26 02:50:40;;;;;;;13.77;9.98;;;15.20;99.90;;;;;;5011307;28;20049;-75
2023/09/26 02:53:07;;;;;;;13.55;10.98;;;15.20;99.90;;;;;;4994204;28;20045;-75
2023/09/26 02:55:32;;;;;;;13.98;11.20;;;15.20;99.90;;;;;;4977807;28;20515;-75
2023/09/26 02:57:58;;;;;;;14.48;11.13;;;15.10;99.90;;;;;;5011189;28;20046;-75
2023/09/26 03:00:23;;;;;;;12.95;10.80;;;15.10;99.90;;;;;;4993246;28;20459;-76
2023/09/26 03:02:49;;;;;;;11.93;10.18;;;15.10;99.90;;;;;;5011258;28;20146;-75
2023/09/26 03:05:16;;;;;;;13.05;10.68;;;15.00;99.90;;;;;;5011461;28;20049;-75
2023/09/26 03:07:42;;;;;;;14.63;10.63;;;15.00;99.90;;;;;;4993783;28;20520;-75
2023/09/26 03:10:08;;;;;;;14.10;11.30;;;15.00;99.90;;;;;;4993186;28;20038;-75
2023/09/26 03:12:34;;;;;;;13.85;11.57;;;14.90;99.90;;;;;;4993508;28;20041;-75
2023/09/26 03:14:59;;;;;;;15.00;11.40;;;14.80;99.90;;;;;;5011060;28;20034;-75
2023/09/26 03:17:25;;;;;;;16.00;11.65;;;14.90;99.90;;;;;;4992960;28;20053;-75
2023/09/26 03:19:51;;;;;;;14.90;11.15;;;14.80;99.90;;;;;;5010989;28;20095;-76
2023/09/26 03:22:16;;;;;;;13.27;11.23;;;14.80;99.90;;;;;;5011048;28;20042;-76
2023/09/26 03:24:42;;;;;;;17.45;12.70;;;14.80;99.90;;;;;;5011173;28;20048;-75
2023/09/26 03:27:07;;;;;;;12.93;11.38;;;14.70;99.90;;;;;;4993585;28;20634;-75
2023/09/26 03:29:33;;;;;;;14.40;11.50;;;14.70;99.90;;;;;;5010936;28;20042;-75
2023/09/26 03:31:58;;;;;;;16.48;11.35;;;14.70;99.90;;;;;;4993264;28;20103;-76
2023/09/26 03:34:24;;;;;;;14.57;11.65;;;14.60;99.90;;;;;;5010948;28;20223;-75
2023/09/26 03:36:50;;;;;;;16.58;11.88;;;14.60;99.90;;;;;;4993633;28;20054;-75
2023/09/26 03:39:15;;;;;;;16.95;12.40;;;14.50;99.90;;;;;;4993385;28;20042;-75
2023/09/26 03:41:41;;;;;;;16.35;12.18;;;14.50;99.90;;;;;;4993146;28;20042;-76
2023/09/26 03:44:06;;;;;;;15.43;10.10;;;14.50;99.90;;;;;;5010630;28;20053;-75
2023/09/26 03:46:32;;;;;;;18.88;10.70;;;14.50;99.90;;;;;;5010854;28;20134;-75
2023/09/26 03:48:58;;;;;;;15.32;11.02;;;14.40;99.90;;;;;;5010388;28;20667;-75
2023/09/26 03:51:24;;;;;;;15.57;10.65;;;14.40;99.90;;;;;;4993121;28;20073;-75
2023/09/26 03:53:49;;;;;;;13.82;11.38;;;14.30;99.90;;;;;;4976988;28;20099;-75
2023/09/26 03:56:15;;;;;;;15.90;11.52;;;14.30;99.90;;;;;;5010607;28;20049;-75
2023/09/26 03:58:40;;;;;;;14.60;11.05;;;14.20;99.90;;;;;;5010649;28;20065;-75
2023/09/26 04:01:16;;;;;;;19.33;12.45;;;14.20;99.90;;;;;;4993010;28;20048;-75
2023/09/26 04:03:45;;;;;;;12.90;11.05;;;14.10;99.90;;;;;;5010241;28;20042;-75
2023/09/26 04:06:10;;;;;;;14.05;10.77;;;14.00;99.90;;;;;;4992914;28;20042;-75
2023/09/26 04:08:36;;;;;;;12.38;10.48;;;14.00;99.90;;;;;;4992825;28;20046;-75
2023/09/26 04:11:02;;;;;;;13.90;11.05;;;14.00;99.90;;;;;;4992973;28;20523;-75
2023/09/26 04:13:28;;;;;;;14.35;10.73;;;13.90;99.90;;;;;;5010374;28;20034;-75
2023/09/26 04:15:53;;;;;;;15.55;11.20;;;13.90;99.90;;;;;;5010456;28;20087;-75
2023/09/26 04:18:20;;;;;;;14.25;10.98;;;13.90;99.90;;;;;;4992657;28;20069;-75
2023/09/26 04:20:46;;;;;;;13.77;10.77;;;13.80;99.90;;;;;;5008772;28;20034;-75
2023/09/26 04:23:11;;;;;;;18.17;11.15;;;13.80;99.90;;;;;;4992497;28;20044;-75
2023/09/26 04:25:37;;;;;;;16.85;11.10;;;13.70;99.90;;;;;;5010449;28;20129;-75
2023/09/26 04:28:03;;;;;;;13.90;10.45;;;13.70;99.90;;;;;;5009078;28;20034;-75
2023/09/26 04:30:30;;;;;;;12.75;9.77;;;13.70;99.90;;;;;;4992226;28;20678;-75
2023/09/26 04:32:56;;;;;;;14.00;10.85;;;13.70;99.90;;;;;;4992350;28;20053;-75
2023/09/26 04:35:21;;;;;;;13.77;10.90;;;13.70;99.90;;;;;;4992766;28;20046;-75
2023/09/26 04:37:47;;;;;;;14.57;10.15;;;13.50;99.90;;;;;;4976310;28;20389;-75
2023/09/26 04:40:13;;;;;;;13.63;10.70;;;13.50;99.90;;;;;;4992217;28;20038;-75
2023/09/26 04:42:41;;;;;;;12.50;11.20;;;13.50;99.90;;;;;;4992191;28;20033;-75
2023/09/26 04:45:07;;;;;;;14.68;10.88;;;13.40;99.90;;;;;;5008651;28;20034;-75
2023/09/26 04:47:33;;;;;;;15.15;11.63;;;13.50;99.90;;;;;;4992271;28;20046;-75
2023/09/26 04:49:58;;;;;;;14.25;11.05;;;13.40;99.90;;;;;;4991744;28;20030;-75
2023/09/26 04:52:24;;;;;;;16.13;11.43;;;13.40;99.90;;;;;;4992062;28;20045;-75
2023/09/26 04:54:53;;;;;;;13.25;10.85;;;13.40;99.90;;;;;;4992267;28;20043;-75
2023/09/26 04:57:19;;;;;;;13.18;10.82;;;13.40;99.90;;;;;;4991731;28;20049;-75
2023/09/26 04:59:44;;;;;;;17.00;11.23;;;13.30;99.90;;;;;;4975116;28;20041;-75
2023/09/26 05:02:10;;;;;;;20.77;11.15;;;13.40;99.90;;;;;;4991580;28;20038;-75
2023/09/26 05:04:35;;;;;;;17.33;12.35;;;13.30;99.90;;;;;;4991893;28;20085;-75
2023/09/26 05:07:01;;;;;;;14.45;11.63;;;13.30;99.90;;;;;;4975850;28;20041;-75
2023/09/26 05:09:26;;;;;;;16.00;12.05;;;13.30;99.90;;;;;;4991610;28;20038;-75
2023/09/26 05:11:52;;;;;;;14.43;11.02;;;13.30;99.90;;;;;;4992050;28;20073;-74
2023/09/26 05:14:17;;;;;;;19.17;12.27;;;13.30;99.90;;;;;;4992105;28;20103;-75
2023/09/26 05:16:43;;;;;;;13.50;11.15;;;13.30;99.90;;;;;;5009133;28;20082;-75
2023/09/26 05:19:09;;;;;;;12.75;11.43;;;13.20;99.90;;;;;;4991568;28;20049;-74
2023/09/26 05:21:34;;;;;;;14.68;11.88;;;13.30;99.90;;;;;;4991759;28;20101;-75
2023/09/26 05:24:00;;;;;;;15.07;10.70;;;13.20;99.90;;;;;;4991616;28;20058;-74
2023/09/26 05:26:25;;;;;;;14.93;11.48;;;13.30;99.90;;;;;;5009464;28;20040;-75
2023/09/26 05:28:51;;;;;;;15.38;11.80;;;13.20;99.90;;;;;;4991403;28;20512;-75
2023/09/26 05:31:17;;;;;;;14.30;11.60;;;13.20;99.90;;;;;;5009047;28;20377;-74
2023/09/26 05:33:43;;;;;;;14.95;12.15;;;13.20;99.90;;;;;;5009188;28;20070;-74
2023/09/26 05:36:09;;;;;;;17.20;13.07;;;13.30;99.90;;;;;;4991808;28;20099;-74
2023/09/26 05:38:34;;;;;;;13.63;11.73;;;13.30;99.90;;;;;;5008973;28;20133;-74
2023/09/26 05:41:00;;;;;;;20.33;11.15;;;13.30;99.90;;;;;;4991217;28;20045;-74
2023/09/26 05:43:27;;;;;;;15.52;12.10;;;13.30;99.90;;;;;;5008943;28;20117;-74
2023/09/26 05:45:52;;;;;;;17.25;12.40;;;13.30;99.90;;;;;;4991569;28;20049;-74
2023/09/26 05:48:21;;;;;;;16.77;10.90;;;13.40;99.90;;;;;;5009047;28;20041;-74
2023/09/26 05:50:46;;;;;;;13.40;10.68;;;13.30;99.90;;;;;;5007540;28;20038;-75
2023/09/26 05:53:12;;;;;;;15.05;10.80;;;13.30;99.90;;;;;;5008968;28;20066;-74
2023/09/26 05:55:38;;;;;;;20.48;11.57;;;13.40;99.90;;;;;;5009033;28;20077;-74
2023/09/26 05:58:04;;;;;;;14.93;10.80;;;13.30;99.90;;;;;;5009000;28;20392;-74
2023/09/26 06:00:30;;;;;;;12.80;10.98;;;13.30;99.90;;;;;;4991061;28;20068;-74
2023/09/26 06:02:55;;;;;;;14.90;10.57;;;13.30;99.90;;;;;;5008470;28;20064;-73
2023/09/26 06:05:21;;;;;;;13.15;10.40;;;13.30;99.90;;;;;;5008732;28;20077;-73
2023/09/26 06:07:47;;;;;;;13.65;10.45;;;13.40;99.90;;;;;;4991262;28;20038;-73
2023/09/26 06:10:12;;;;;;;14.85;10.32;;;13.40;99.90;;;;;;5008633;28;20034;-73
2023/09/26 06:12:38;;;;;;;15.68;10.82;;;13.40;99.90;;;;;;5008807;28;20034;-73
2023/09/26 06:15:06;;;;;;;13.75;10.93;;;13.40;99.90;;;;;;4991426;28;20041;-73
2023/09/26 06:17:32;;;;;;;13.35;10.77;;;13.40;99.90;;;;;;5008651;28;20034;-74
2023/09/26 06:19:58;;;;;;;14.30;10.85;;;13.40;99.90;;;;;;5007799;28;20038;-74
2023/09/26 06:22:23;;;;;;;11.68;9.75;;;13.40;99.90;;;;;;4990141;28;20045;-74
2023/09/26 06:24:49;;;;;;;13.60;10.82;;;13.40;99.90;;;;;;4990697;28;20041;-74
2023/09/26 06:27:14;;;;;;;16.55;11.25;;;13.50;99.90;;;;;;5007734;28;20077;-74
2023/09/26 06:29:41;;;;;;;16.48;10.77;;;13.50;99.90;;;;;;5007910;28;20049;-74
2023/09/26 06:32:07;;;;;;;14.40;10.85;;;13.50;99.90;;;;;;4990699;28;20709;-74
2023/09/26 06:34:35;;;;;;;15.88;10.50;;;13.50;99.90;;;;;;4990623;28;20099;-75
2023/09/26 06:37:03;;;;;;;14.90;10.40;;;13.70;99.90;;;;;;4990807;28;20048;-75
2023/09/26 06:39:29;;;;;;;15.57;11.15;;;13.70;99.90;;;;;;4990458;28;20500;-75
2023/09/26 06:41:55;;;;;;;13.50;10.77;;;13.70;99.90;;;;;;4993530;28;20046;-75
2023/09/26 06:44:20;;;;;;;14.23;9.80;;;13.90;99.90;;;;;;4971446;28;20050;-75
2023/09/26 06:46:46;;;;;;;13.13;10.57;;;14.00;99.90;;;;;;5005353;28;20077;-75
2023/09/26 06:49:12;;;;;;;16.73;10.77;;;14.10;99.90;;;;;;5005477;28;20083;-75
2023/09/26 06:51:37;;;;;;;12.93;10.30;;;14.10;99.90;;;;;;4980728;28;20038;-74
2023/09/26 06:54:03;;;;;;;17.23;10.38;;;14.10;99.90;;;;;;4986482;28;20046;-74
2023/09/26 06:56:29;;;;;;;15.25;11.23;;;14.20;99.90;;;;;;4993531;28;20038;-75
2023/09/26 06:58:55;;;;;;;13.95;9.88;;;14.20;99.90;;;;;;4993314;28;20091;-76
2023/09/26 07:01:20;;;;;;;13.65;10.25;;;14.30;99.90;;;;;;4993780;28;20041;-75
2023/09/26 07:03:46;;;;;;;13.00;10.00;;;14.30;99.90;;;;;;4993831;28;20049;-75
2023/09/26 07:06:14;;;;;;;13.90;10.75;;;14.40;99.90;;;;;;4993903;28;20041;-75
2023/09/26 07:08:42;;;;;;;15.73;9.98;;;14.40;99.90;;;;;;4977332;28;20128;-74
2023/09/26 07:11:09;;;;;;;11.85;9.57;;;14.70;99.90;;;;;;5010961;28;20069;-75
2023/09/26 07:13:35;;;;;;;15.05;10.23;;;14.80;99.90;;;;;;4993246;28;20049;-75
2023/09/26 07:16:05;;;;;;;13.80;10.63;;;14.90;99.90;;;;;;4977181;28;20363;-75
2023/09/26 07:18:32;;;;;;;14.63;10.57;;;15.00;99.90;;;;;;5010903;28;20045;-75
2023/09/26 07:21:04;;;;;;;11.77;9.70;;;15.10;99.90;;;;;;5011303;28;20048;-74
2023/09/26 07:23:34;;;;;;;12.23;9.82;;;15.20;99.90;;;;;;5011220;28;20065;-74
2023/09/26 07:26:17;;;;;;;12.90;9.55;;;15.40;99.90;;;;;;4993621;28;20497;-74
2023/09/26 07:28:44;;;;;;;13.68;8.88;;;15.60;99.90;;;;;;4977043;28;20042;-74
2023/09/26 07:31:15;;;;;;;16.63;9.20;;;15.70;99.90;;;;;;4993150;28;20501;-75
2023/09/26 07:33:42;;;;;;;12.98;9.20;;;15.80;99.90;;;;;;5010973;28;20045;-75
2023/09/26 07:36:08;;;;;;;14.75;9.95;;;15.90;99.90;;;;;;5010726;28;20046;-75
2023/09/26 07:38:34;;;;;;;14.27;9.75;;;15.90;99.90;;;;;;5010900;28;20038;-74
2023/09/26 07:41:00;;;;;;;14.02;9.93;;;16.00;99.90;;;;;;4993081;28;20038;-75
2023/09/26 07:43:29;;;;;;;14.30;9.70;;;16.00;99.90;;;;;;4976911;28;20069;-74
2023/09/26 07:46:14;;;;;;;13.30;9.52;;;15.90;99.90;;;;;;4993402;28;20505;-74
2023/09/26 07:48:40;;;;;;;11.52;9.65;;;15.90;99.90;;;;;;4993277;28;20038;-74
2023/09/26 07:51:08;;;;;;;11.02;8.88;;;16.00;99.90;;;;;;5010628;28;20091;-74
2023/09/26 07:53:34;;;;;;;13.23;9.65;;;16.10;99.90;;;;;;4993092;28;20042;-74
2023/09/26 07:56:00;;;;;;;10.93;8.93;;;16.20;99.90;;;;;;4993171;28;20091;-74
2023/09/26 07:58:26;;;;;;;10.38;8.52;;;16.30;99.90;;;;;;4992983;28;20443;-74
2023/09/26 08:00:58;;;;;;;12.98;9.18;;;16.40;99.90;;;;;;5010303;28;20427;-74
2023/09/26 08:03:24;;;;;;;9.75;8.25;;;16.60;99.90;;;;;;5010370;28;20038;-72
2023/09/26 08:05:57;;;;;;;13.30;9.10;;;16.80;99.90;;;;;;4993020;28;20073;-72
2023/09/26 08:08:23;;;;;;;11.02;8.15;;;16.90;99.90;;;;;;4993766;28;20049;-72
2023/09/26 08:10:48;;;;;;;11.25;8.00;;;17.00;99.90;;;;;;4992869;28;20034;-72
2023/09/26 08:13:15;;;;;;;12.48;8.02;;;17.10;99.90;;;;;;4992794;28;20133;-72
2023/09/26 08:15:40;;;;;;;10.07;8.60;;;17.10;99.90;;;;;;4993298;28;20565;-72
2023/09/26 08:18:06;;;;;;;12.20;8.73;;;17.10;99.90;;;;;;4993117;28;20042;-72
2023/09/26 08:20:32;;;;;;;12.73;7.97;;;17.20;99.90;;;;;;4992690;28;20038;-72
2023/09/26 08:22:57;;;;;;;12.65;8.77;;;17.30;99.90;;;;;;4976371;28;20038;-72
2023/09/26 08:25:24;;;;;;;13.68;8.45;;;17.40;99.90;;;;;;4992710;28;20087;-72
2023/09/26 08:27:49;;;;;;;12.00;8.02;;;17.40;99.90;;;;;;4976594;28;20083;-72
2023/09/26 08:30:15;;;;;;;10.73;8.48;;;17.40;99.90;;;;;;5010098;28;20038;-72
2023/09/26 08:32:42;;;;;;;11.25;8.60;;;17.40;99.90;;;;;;5010052;28;20049;-72
2023/09/26 08:35:09;;;;;;;12.05;9.00;;;17.30;99.90;;;;;;4992687;28;20121;-72
2023/09/26 08:37:35;;;;;;;14.10;9.25;;;17.20;99.90;;;;;;4992676;28;20053;-72
2023/09/26 08:40:04;;;;;;;12.10;8.50;;;17.10;99.90;;;;;;4992285;28;20073;-73
2023/09/26 08:42:31;;;;;;;13.00;8.98;;;17.20;99.90;;;;;;4992113;28;20091;-72
2023/09/26 08:44:58;;;;;;;11.15;7.88;;;17.20;99.90;;;;;;5009972;28;20052;-72
2023/09/26 08:47:24;;;;;;;13.07;8.30;;;17.20;99.90;;;;;;4992678;28;20069;-72
2023/09/26 08:49:54;;;;;;;12.95;8.38;;;17.30;99.90;;;;;;4992310;28;20048;-72
2023/09/26 08:52:24;;;;;;;11.13;8.27;;;17.20;99.90;;;;;;5009935;28;20048;-72
2023/09/26 08:54:50;;;;;;;11.57;8.68;;;17.20;99.90;;;;;;4992412;28;20476;-72
2023/09/26 08:57:22;;;;;;;12.95;8.25;;;17.20;99.90;;;;;;4992064;28;20088;-72
2023/09/26 08:59:48;;;;;;;13.98;9.73;;;17.30;99.90;;;;;;4991910;28;20046;-72
2023/09/26 09:02:15;;;;;;;14.50;9.20;;;17.30;99.90;;;;;;4992005;28;20045;-72
2023/09/26 09:04:45;;;;;;;14.32;8.60;;;17.30;99.90;;;;;;4992022;28;20053;-72
2023/09/26 09:07:12;;;;;;;14.20;9.73;;;17.30;99.90;;;;;;4992429;28;20038;-72
2023/09/26 09:09:57;;;;;;;13.05;9.18;;;17.30;99.90;;;;;;4975491;28;20037;-72
2023/09/26 09:12:23;;;;;;;13.35;9.38;;;17.30;99.90;;;;;;4991947;28;20042;-72
2023/09/26 09:14:49;;;;;;;15.68;8.63;;;17.30;99.90;;;;;;4975316;28;20049;-72
2023/09/26 09:17:14;;;;;;;13.27;9.48;;;17.30;99.90;;;;;;4991965;28;20107;-72
2023/09/26 09:19:45;;;;;;;14.30;10.10;;;17.40;99.90;;;;;;4991705;28;20041;-72
2023/09/26 09:22:18;;;;;;;14.13;10.23;;;17.40;99.90;;;;;;4975412;28;20038;-72
2023/09/26 09:24:52;;;;;;;14.60;9.38;;;17.60;99.90;;;;;;4991775;28;20045;-72
2023/09/26 09:27:31;;;;;;;12.40;9.40;;;17.70;99.90;;;;;;4975529;28;20053;-72
2023/09/26 09:30:07;;;;;;;14.45;9.52;;;17.70;99.90;;;;;;4991337;28;20500;-72
2023/09/26 09:32:34;;;;;;;16.45;10.15;;;17.80;99.90;;;;;;4991569;28;20530;-73
2023/09/26 09:35:00;;;;;;;15.10;9.30;;;17.90;99.90;;;;;;4991704;28;20046;-72
2023/09/26 09:37:26;;;;;;;14.07;9.55;;;17.90;99.90;;;;;;4991687;28;20114;-72
2023/09/26 09:39:52;;;;;;;16.08;9.80;;;18.00;99.90;;;;;;4991315;28;20099;-72
2023/09/26 09:42:18;;;;;;;11.80;9.10;;;18.10;99.90;;;;;;4991233;28;20459;-72
2023/09/26 09:44:44;;;;;;;10.48;7.65;;;18.10;99.90;;;;;;4991517;28;20134;-72
2023/09/26 09:47:11;;;;;;;12.85;8.05;;;18.10;99.90;;;;;;4991659;28;20117;-72
2023/09/26 09:49:46;;;;;;;11.88;7.82;;;18.10;99.90;;;;;;4991057;28;20044;-72
2023/09/26 09:52:12;;;;;;;16.73;9.00;;;18.20;99.90;;;;;;4991636;28;20046;-72
2023/09/26 09:54:43;;;;;;;13.70;8.10;;;18.30;99.90;;;;;;5008878;28;20038;-72
2023/09/26 09:57:10;;;;;;;12.75;7.45;;;18.40;99.90;;;;;;4991382;28;20508;-73
2023/09/26 09:59:37;;;;;;;11.95;7.68;;;18.50;99.90;;;;;;4991326;28;20073;-72
2023/09/26 10:02:04;;;;;;;12.00;7.00;;;18.70;99.90;;;;;;5008846;28;20140;-72
2023/09/26 10:04:34;;;;;;;11.82;7.63;;;18.70;99.90;;;;;;4991693;28;20553;-72
2023/09/26 10:07:00;;;;;;;10.60;6.72;;;18.70;99.90;;;;;;4991132;28;20038;-72
2023/09/26 10:09:29;;;;;;;10.50;7.40;;;18.80;99.90;;;;;;4990871;28;20080;-72
2023/09/26 10:11:56;;;;;;;10.10;7.35;;;18.90;99.90;;;;;;4991100;28;20038;-72
2023/09/26 10:14:22;;;;;;;10.73;7.18;;;19.00;99.90;;;;;;5008696;28;20046;-72
2023/09/26 10:16:49;;;;;;;9.65;6.50;;;19.20;99.90;;;;;;4991050;28;20042;-72
2023/09/26 10:19:16;;;;;;;11.35;7.35;;;19.20;99.90;;;;;;4974616;28;20548;-72
2023/09/26 10:21:41;;;;;;;9.55;6.72;;;19.20;99.90;;;;;;5008388;28;20038;-72
2023/09/26 10:24:13;;;;;;;8.45;6.10;;;19.20;99.90;;;;;;4990903;28;20049;-72
2023/09/26 10:26:49;;;;;;;12.52;7.40;;;19.20;99.90;;;;;;4992249;28;20038;-72
2023/09/26 10:29:22;;;;;;;9.65;6.80;;;19.20;99.90;;;;;;4994060;28;20634;-72
2023/09/26 10:32:04;;;;;;;9.50;7.30;;;19.10;99.90;;;;;;4994460;28;20049;-72
2023/09/26 10:34:32;;;;;;;10.52;6.65;;;19.20;99.90;;;;;;4978345;28;20058;-73
2023/09/26 10:37:05;;;;;;;8.80;6.38;;;19.10;99.90;;;;;;4994327;28;20053;-72
2023/09/26 10:39:39;;;;;;;8.07;6.65;;;19.10;99.90;;;;;;4993916;28;20509;-72
2023/09/26 10:42:12;;;;;;;10.95;7.97;;;19.20;99.90;;;;;;4977959;28;20401;-72
2023/09/26 10:44:43;;;;;;;;;;;19.20;99.90;;;;;;4994675;28;20098;-72
2023/09/26 10:47:12;;;;;;;9.95;7.18;;;19.20;99.90;;;;;;4994145;28;19938;-72
2023/09/26 10:49:37;;;;;;;11.30;6.88;;;19.30;99.90;;;;;;4993961;28;20096;-72
2023/09/26 10:52:08;;;;;;;10.75;7.70;;;19.30;99.90;;;;;;4994105;28;20452;-72
2023/09/26 10:54:36;;;;;;;14.05;7.72;;;19.40;99.90;;;;;;5011692;28;20049;-73
2023/09/26 10:57:01;;;;;;;9.23;7.07;;;19.50;99.90;;;;;;4978120;28;20054;-73
2023/09/26 10:59:28;;;;;;;10.38;7.13;;;19.50;99.90;;;;;;4993685;28;20044;-73
2023/09/26 11:01:55;;;;;;;13.75;7.28;;;19.60;99.90;;;;;;4977546;28;20041;-73
2023/09/26 11:04:20;;;;;;;10.57;7.60;;;19.60;99.90;;;;;;4994148;28;20048;-73
2023/09/26 11:06:46;;;;;;;9.50;7.60;;;19.60;99.90;;;;;;4977838;28;20554;-73
2023/09/26 11:09:12;;;;;;;10.57;7.05;;;19.70;99.90;;;;;;4993595;28;20098;-73
2023/09/26 11:11:38;;;;;;;8.50;6.70;;;19.60;99.90;;;;;;5011275;28;20046;-73
2023/09/26 11:14:04;;;;;;;9.13;5.97;;;19.60;99.90;;;;;;5011240;28;20060;-73
2023/09/26 11:16:29;;;;;;;9.43;6.85;;;19.70;99.90;;;;;;4994150;28;20103;-73
2023/09/26 11:18:55;;;;;;;6.60;5.95;;;19.70;99.90;;;;;;4994038;28;20504;-73
2023/09/26 11:21:21;;;;;;;9.77;6.35;;;19.70;99.90;;;;;;4993487;28;20045;-72
2023/09/26 11:23:47;;;;;;;6.65;5.90;;;19.80;99.90;;;;;;4977557;28;20476;-72
2023/09/26 11:26:12;;;;;;;9.95;6.47;;;19.70;99.90;;;;;;4977411;28;20505;-72
2023/09/26 11:28:39;;;;;;;8.02;6.20;;;19.80;99.90;;;;;;4993766;28;20044;-73
2023/09/26 11:31:05;;;;;;;9.18;6.00;;;19.70;99.90;;;;;;4993304;28;20121;-73
2023/09/26 11:33:31;;;;;;;6.70;5.93;;;19.70;99.90;;;;;;5011063;28;20053;-73
2023/09/26 11:35:57;;;;;;;9.93;6.00;;;19.70;99.90;;;;;;4993657;28;20041;-73
2023/09/26 11:38:23;;;;;;;10.00;7.03;;;19.70;99.90;;;;;;4993084;28;20523;-73
2023/09/26 11:40:49;;;;;;;9.35;6.18;;;19.80;99.90;;;;;;5010642;28;20057;-73
2023/09/26 11:43:14;;;;;;;9.50;6.82;;;19.80;99.90;;;;;;5010668;28;20042;-73
2023/09/26 11:45:40;;;;;;;8.75;6.97;;;19.80;99.90;;;;;;4993448;28;20065;-73
2023/09/26 11:48:06;;;;;;;11.27;7.70;;;19.80;99.90;;;;;;5010920;28;20044;-73
2023/09/26 11:50:32;;;;;;;10.15;7.35;;;19.80;99.90;;;;;;4992948;28;20116;-73
2023/09/26 11:53:02;;;;;;;9.98;7.00;;;19.80;99.90;;;;;;4993131;28;20049;-73
2023/09/26 11:55:29;;;;;;;11.77;7.65;;;19.90;99.90;;;;;;4993262;28;20050;-73
2023/09/26 11:57:55;;;;;;;8.52;7.32;;;19.80;99.90;;;;;;4993062;28;20125;-73
2023/09/26 12:00:21;;;;;;;11.93;7.35;;;19.80;99.90;;;;;;4992832;28;20094;-73
2023/09/26 12:02:49;;;;;;;9.07;7.00;;;19.80;99.90;;;;;;4993124;28;20053;-72
2023/09/26 12:05:22;;;;;;;10.63;7.15;;;19.70;99.90;;;;;;4993001;28;20083;-73
2023/09/26 12:07:49;;;;;;;9.35;6.75;;;19.80;99.90;;;;;;4992755;28;20111;-73
2023/09/26 12:10:15;;;;;;;9.82;7.00;;;19.80;99.90;;;;;;4992812;28;20042;-73
2023/09/26 12:12:41;;;;;;;10.13;6.82;;;19.80;99.90;;;;;;4993012;28;20637;-73
2023/09/26 12:15:20;;;;;;;9.65;6.80;;;19.90;99.90;;;;;;4976721;28;20050;-73
2023/09/26 12:17:51;;;;;;;9.68;6.85;;;19.90;99.90;;;;;;4993159;28;20042;-73
2023/09/26 12:20:21;;;;;;;10.52;7.43;;;20.00;99.90;;;;;;4992787;28;20443;-73
2023/09/26 12:22:53;;;;;;;7.93;6.95;;;20.00;99.90;;;;;;4992628;28;20397;-73
2023/09/26 12:25:24;;;;;;;7.03;5.97;;;20.00;99.90;;;;;;4992694;28;20038;-73
2023/09/26 12:27:50;;;;;;;9.07;6.20;;;20.00;99.90;;;;;;4976708;28;20042;-73
2023/09/26 12:30:16;;;;;;;7.63;5.35;;;20.10;99.90;;;;;;4992521;28;20038;-73
2023/09/26 12:32:43;;;;;;;8.27;6.32;;;20.10;99.90;;;;;;4992594;28;20108;-73
2023/09/26 12:35:09;;;;;;;8.60;6.07;;;20.10;99.90;;;;;;4992615;28;20504;-73